Neil N. Diehl (nnd) — WDB8701 — position and weather

sailwx.info

Track history (hours):
 
Tides and Currents Weather Stations Pressure Air Temp Water Temp Dewpoint Dewpoint Depression Visibility Wind Speed Wind Dir Waves Ship Positions

Neil N. Diehl (nnd)

Owner: Ingram Barge Company LLC, Nashville, TN. More information available from US FCC via Universal Licensing System and Coast Guard Vessel Documentation Center.

Last reported at 2017-Sep-08 21:49 UTC. Time now 2017-Nov-23 09:42 UTC.
Position N 38°52' W 090°33'.
Warning: this ship's position is months out of date.

Length 39 m; draft 3 m.

Type: Ship (hazmat cat B). MMSI: 366963030.

Date/timePositionNaut miles runAvg speedWind from/ knotsBaromVisibWave heightAir tempDewpointWater temp
2017-Sep-08 21:49N 38°52' W 090°33'2 4.3
2017-Sep-08 21:16N 38°54' W 090°31'1 3.8
2017-Sep-08 21:01N 38°55' W 090°31'2 3.8
2017-Sep-08 20:31N 38°56' W 090°29'2 3.8
2017-Sep-08 20:01N 38°57' W 090°27'2 4.6
2017-Sep-08 19:31N 38°58' W 090°24'3 5.3
2017-Sep-08 19:00N 38°57' W 090°21'3 5.3
2017-Sep-08 18:30N 38°55' W 090°18'8 2.1
2017-Sep-08 14:30N 38°52' W 090°08'  
2017-Sep-06 02:39N 38°52' W 090°09'0 2.3
2017-Sep-06 02:28N 38°53' W 090°10'2 3.0
2017-Sep-06 01:53N 38°53' W 090°12'1 1.9
2017-Sep-06 01:10N 38°54' W 090°13'0 0.3
2017-Sep-06 00:57N 38°54' W 090°13'1 1.2
2017-Sep-06 00:23N 38°55' W 090°14'0 1.0
2017-Sep-06 00:00N 38°55' W 090°14'0 0.0
2017-Sep-05 23:10N 38°55' W 090°14'0 0.0
2017-Sep-05 22:57N 38°55' W 090°14'0 0.2
2017-Sep-05 22:29N 38°55' W 090°14'2 3.6
2017-Sep-05 21:57N 38°55' W 090°17'2 5.5
2017-Sep-05 21:31N 38°56' W 090°20'2 3.9
2017-Sep-05 21:01N 38°57' W 090°22'0 0.1
2017-Sep-05 20:31N 38°57' W 090°22'0 0.0
2017-Sep-05 20:01N 38°57' W 090°22'0 0.0
2017-Sep-05 19:31N 38°57' W 090°22'0 0.0
2017-Sep-05 19:00N 38°57' W 090°22'0 0.0
2017-Sep-05 18:31N 38°57' W 090°22'0 0.0
2017-Sep-05 18:01N 38°57' W 090°22'0 0.0
2017-Sep-05 17:31N 38°57' W 090°22'0 0.0
2017-Sep-05 17:01N 38°57' W 090°22'0 0.0
2017-Sep-05 16:30N 38°57' W 090°22'0 0.0
2017-Sep-05 16:01N 38°57' W 090°22'0 0.2
2017-Sep-05 15:31N 38°57' W 090°22'2 4.5
2017-Sep-05 15:01N 38°58' W 090°24'3 5.1
2017-Sep-05 14:31N 38°57' W 090°28'3 5.0
2017-Sep-05 14:00N 38°56' W 090°30'3 5.3
2017-Sep-05 13:30N 38°53' W 090°32'110 2.3
2017-Sep-03 13:37N 40°40' W 091°08'2 5.2
2017-Sep-03 13:16N 40°42' W 091°07'1 2.8
2017-Sep-03 13:00N 40°42' W 091°07'0 0.1
2017-Sep-03 12:30N 40°42' W 091°06'0 0.0
2017-Sep-03 12:00N 40°42' W 091°06'2 2.9
2017-Sep-03 11:27N 40°44' W 091°07'2 5.2
2017-Sep-03 11:00N 40°46' W 091°06'3 5.2
2017-Sep-03 10:30N 40°49' W 091°06'2 4.6
2017-Sep-03 10:00N 40°51' W 091°04'  
Track history (hours):
 
Tides and Currents Weather Stations Pressure Air Temp Water Temp Dewpoint Dewpoint Depression Visibility Wind Speed Wind Dir Waves Ship Positions

Neil N. Diehl (nnd)

Owner: Ingram Barge Company LLC, Nashville, TN. More information available from US FCC via Universal Licensing System and Coast Guard Vessel Documentation Center.

Last reported at 2017-Sep-08 21:49 UTC. Time now 2017-Nov-23 09:42 UTC.
Position N 38°52' W 090°33'.
Warning: this ship's position is months out of date.

Length 39 m; draft 3 m.

Type: Ship (hazmat cat B). MMSI: 366963030.

Date/timePositionNaut miles runAvg speedWind from/ knotsBaromVisibWave heightAir tempDewpointWater temp
2017-Sep-08 21:49N 38°52' W 090°33'2 4.3
2017-Sep-08 21:16N 38°54' W 090°31'1 3.8
2017-Sep-08 21:01N 38°55' W 090°31'2 3.8
2017-Sep-08 20:31N 38°56' W 090°29'2 3.8
2017-Sep-08 20:01N 38°57' W 090°27'2 4.6
2017-Sep-08 19:31N 38°58' W 090°24'3 5.3
2017-Sep-08 19:00N 38°57' W 090°21'3 5.3
2017-Sep-08 18:30N 38°55' W 090°18'8 2.1
2017-Sep-08 14:30N 38°52' W 090°08'  
2017-Sep-06 02:39N 38°52' W 090°09'0 2.3
2017-Sep-06 02:28N 38°53' W 090°10'2 3.0
2017-Sep-06 01:53N 38°53' W 090°12'1 1.9
2017-Sep-06 01:10N 38°54' W 090°13'0 0.3
2017-Sep-06 00:57N 38°54' W 090°13'1 1.2
2017-Sep-06 00:23N 38°55' W 090°14'0 1.0
2017-Sep-06 00:00N 38°55' W 090°14'0 0.0
2017-Sep-05 23:10N 38°55' W 090°14'0 0.0
2017-Sep-05 22:57N 38°55' W 090°14'0 0.2
2017-Sep-05 22:29N 38°55' W 090°14'2 3.6
2017-Sep-05 21:57N 38°55' W 090°17'2 5.5
2017-Sep-05 21:31N 38°56' W 090°20'2 3.9
2017-Sep-05 21:01N 38°57' W 090°22'0 0.1
2017-Sep-05 20:31N 38°57' W 090°22'0 0.0
2017-Sep-05 20:01N 38°57' W 090°22'0 0.0
2017-Sep-05 19:31N 38°57' W 090°22'0 0.0
2017-Sep-05 19:00N 38°57' W 090°22'0 0.0
2017-Sep-05 18:31N 38°57' W 090°22'0 0.0
2017-Sep-05 18:01N 38°57' W 090°22'0 0.0
2017-Sep-05 17:31N 38°57' W 090°22'0 0.0
2017-Sep-05 17:01N 38°57' W 090°22'0 0.0
2017-Sep-05 16:30N 38°57' W 090°22'0 0.0
2017-Sep-05 16:01N 38°57' W 090°22'0 0.2
2017-Sep-05 15:31N 38°57' W 090°22'2 4.5
2017-Sep-05 15:01N 38°58' W 090°24'3 5.1
2017-Sep-05 14:31N 38°57' W 090°28'3 5.0
2017-Sep-05 14:00N 38°56' W 090°30'3 5.3
2017-Sep-05 13:30N 38°53' W 090°32'110 2.3
2017-Sep-03 13:37N 40°40' W 091°08'2 5.2
2017-Sep-03 13:16N 40°42' W 091°07'1 2.8
2017-Sep-03 13:00N 40°42' W 091°07'0 0.1
2017-Sep-03 12:30N 40°42' W 091°06'0 0.0
2017-Sep-03 12:00N 40°42' W 091°06'2 2.9
2017-Sep-03 11:27N 40°44' W 091°07'2 5.2
2017-Sep-03 11:00N 40°46' W 091°06'3 5.2
2017-Sep-03 10:30N 40°49' W 091°06'2 4.6
2017-Sep-03 10:00N 40°51' W 091°04'  

Dump ship's entire track history